createdAt,value
2023-01-10T00:00:14.316Z,99095.19
2023-01-10T00:01:18.322Z,99090.81
2023-01-10T00:02:20.784Z,99086.28
2023-01-10T00:03:32.781Z,99088.91
2023-01-10T00:04:36.707Z,99090.66
2023-01-10T00:05:40.527Z,99085.84
2023-01-10T00:06:43.251Z,99088.47
2023-01-10T00:07:46.898Z,99076.31
2023-01-10T00:08:58.253Z,99078.25
2023-01-10T00:10:01.280Z,99081.19
2023-01-10T00:11:23.677Z,99077.38
2023-01-10T00:12:44.736Z,99077.50
2023-01-10T00:13:47.454Z,99070.84
2023-01-10T00:14:49.972Z,99066.66
2023-01-10T00:15:56.447Z,99064.81
2023-01-10T00:16:59.656Z,99063.19
2023-01-10T00:18:04.503Z,99068.69
2023-01-10T00:19:08.637Z,99063.06
2023-01-10T00:20:14.191Z,99060.06
2023-01-10T00:21:22.265Z,99061.81
2023-01-10T00:22:26.085Z,99064.84
2023-01-10T00:23:28.797Z,99058.72
2023-01-10T00:24:31.255Z,99061.59
2023-01-10T00:25:36.296Z,99063.78
2023-01-10T00:26:38.955Z,99055.22
2023-01-10T00:27:41.600Z,99056.34
2023-01-10T00:28:44.242Z,99059.28
2023-01-10T00:29:47.213Z,99067.59
2023-01-10T00:31:07.038Z,99071.28
2023-01-10T00:32:09.672Z,99057.78
2023-01-10T00:33:17.682Z,99066.72
2023-01-10T00:34:20.855Z,99072.06
2023-01-10T00:35:30.704Z,99058.53
2023-01-10T00:36:40.670Z,99059.97
2023-01-10T00:37:43.254Z,99063.34
2023-01-10T00:38:46.326Z,99057.84
2023-01-10T00:39:52.345Z,99059.28
2023-01-10T00:40:54.838Z,99060.06
2023-01-10T00:42:16.551Z,99063.66
2023-01-10T00:43:37.527Z,99068.59
2023-01-10T00:44:40.039Z,99063.06
2023-01-10T00:45:42.644Z,99079.94
2023-01-10T00:46:45.232Z,99095.66
2023-01-10T00:47:49.957Z,99107.31
2023-01-10T00:48:57.994Z,99109.16
2023-01-10T00:50:05.190Z,99099.72
2023-01-10T00:51:13.686Z,99090.34
2023-01-10T00:52:18.883Z,99089.06
2023-01-10T00:53:22.401Z,99088.31
2023-01-10T00:54:25.110Z,99088.50
2023-01-10T00:55:36.877Z,99089.41
2023-01-10T00:56:42.115Z,99093.91
2023-01-10T00:57:44.713Z,99084.41
2023-01-10T00:58:50.062Z,99079.84
2023-01-10T01:00:01.561Z,99069.97
2023-01-10T01:01:04.276Z,99073.50
2023-01-10T01:02:10.087Z,99068.81
2023-01-10T01:03:18.379Z,99072.31
2023-01-10T01:04:24.087Z,99068.59
2023-01-10T01:05:29.502Z,99071.66
2023-01-10T01:06:33.236Z,99073.19
2023-01-10T01:07:36.170Z,99063.53
2023-01-10T01:08:38.893Z,99067.66
2023-01-10T01:10:01.453Z,99059.75
2023-01-10T01:11:04.344Z,99063.94
2023-01-10T01:12:07.132Z,99063.00
2023-01-10T01:13:15.496Z,99066.06
2023-01-10T01:14:20.803Z,99057.28
2023-01-10T01:15:24.343Z,99070.56
2023-01-10T01:16:29.895Z,99065.22
2023-01-10T01:17:33.611Z,99068.31
2023-01-10T01:18:36.394Z,99065.91
2023-01-10T01:19:39.111Z,99071.59
2023-01-10T01:20:42.401Z,99075.22
2023-01-10T01:21:49.236Z,99069.97
2023-01-10T01:22:55.051Z,99077.06
2023-01-10T01:24:00.955Z,99075.09
2023-01-10T01:25:06.673Z,99079.34
2023-01-10T01:26:12.232Z,99075.53
2023-01-10T01:27:16.511Z,99076.63
2023-01-10T01:28:20.118Z,99074.44
2023-01-10T01:29:43.038Z,99076.31
2023-01-10T01:30:46.737Z,99064.28
2023-01-10T01:31:52.336Z,99078.16
2023-01-10T01:32:55.473Z,99067.59
2023-01-10T01:33:59.138Z,99074.28
2023-01-10T01:35:02.202Z,99070.63
2023-01-10T01:36:11.942Z,99064.53
2023-01-10T01:37:19.860Z,99062.44
2023-01-10T01:38:25.756Z,99060.91
2023-01-10T01:39:31.298Z,99066.91
2023-01-10T01:40:47.507Z,99069.78
2023-01-10T01:42:26.070Z,99068.31
2023-01-10T01:44:11.286Z,99074.69
2023-01-10T01:45:38.502Z,99079.16
2023-01-10T01:46:43.003Z,99076.91
2023-01-10T01:47:50.264Z,99069.84
2023-01-10T01:48:56.703Z,99078.81
2023-01-10T01:49:59.802Z,99073.78
2023-01-10T01:51:18.061Z,99077.31
2023-01-10T01:52:36.513Z,99076.91
2023-01-10T01:53:51.447Z,99076.44
2023-01-10T01:55:05.561Z,99073.81
2023-01-10T01:56:33.664Z,99062.91
2023-01-10T01:57:39.040Z,99058.97
2023-01-10T01:58:53.348Z,99067.47
2023-01-10T02:00:01.478Z,99064.13
2023-01-10T02:01:18.357Z,99063.78
2023-01-10T02:02:32.382Z,99059.28
2023-01-10T02:03:37.501Z,99062.44
2023-01-10T02:05:05.075Z,99067.94
2023-01-10T02:06:08.606Z,99057.59
2023-01-10T02:07:13.816Z,99058.72
2023-01-10T02:08:16.967Z,99065.38
2023-01-10T02:09:28.684Z,99066.25
2023-01-10T02:11:01.430Z,99060.59
2023-01-10T02:12:04.444Z,99059.34
2023-01-10T02:13:11.203Z,99056.00
2023-01-10T02:14:25.291Z,99050.09
2023-01-10T02:15:27.857Z,99057.19
2023-01-10T02:16:30.630Z,99056.41
2023-01-10T02:17:33.282Z,99054.06
2023-01-10T02:18:37.481Z,99058.06
2023-01-10T02:19:55.178Z,99058.06
2023-01-10T02:21:15.886Z,99056.63
2023-01-10T02:22:42.032Z,99066.56
2023-01-10T02:24:09.966Z,99059.34
2023-01-10T02:25:33.441Z,99070.06
2023-01-10T02:26:48.308Z,99066.53
2023-01-10T02:28:21.241Z,99070.25
2023-01-10T02:29:42.425Z,99064.16
2023-01-10T02:31:09.960Z,99067.97
2023-01-10T02:32:45.519Z,99066.78
2023-01-10T02:34:37.803Z,99074.22
2023-01-10T02:35:58.089Z,99078.25
2023-01-10T02:37:16.732Z,99067.88
2023-01-10T02:38:46.935Z,99066.91
2023-01-10T02:40:00.778Z,99065.47
2023-01-10T02:41:45.226Z,99060.00
2023-01-10T02:42:56.869Z,99059.03
2023-01-10T02:44:12.517Z,99060.06
2023-01-10T02:45:22.917Z,99055.66
2023-01-10T02:46:34.021Z,99059.75
2023-01-10T02:47:42.654Z,99064.59
2023-01-10T02:48:45.199Z,99064.81
2023-01-10T02:49:50.278Z,99066.00
2023-01-10T02:51:02.392Z,99063.19
2023-01-10T02:52:05.160Z,99068.09
2023-01-10T02:53:19.773Z,99062.53
2023-01-10T02:54:31.002Z,99067.66
2023-01-10T02:56:12.632Z,99062.59
2023-01-10T02:57:42.138Z,99070.56
2023-01-10T02:59:09.583Z,99078.16
2023-01-10T03:00:30.476Z,99077.72
2023-01-10T03:01:56.716Z,99080.00
2023-01-10T03:03:05.176Z,99082.75
2023-01-10T03:04:45.977Z,99080.47
2023-01-10T03:06:12.021Z,99075.97
2023-01-10T03:07:18.807Z,99075.31
2023-01-10T03:08:32.410Z,99077.66
2023-01-10T03:09:55.944Z,99076.09
2023-01-10T03:11:02.068Z,99078.88
2023-01-10T03:12:21.146Z,99075.59
2023-01-10T03:13:44.257Z,99068.88
2023-01-10T03:14:50.145Z,99072.44
2023-01-10T03:15:58.432Z,99071.53
2023-01-10T03:17:04.990Z,99080.38
2023-01-10T03:18:35.333Z,99074.72
2023-01-10T03:19:50.560Z,99077.66
2023-01-10T03:20:55.429Z,99076.09
2023-01-10T03:22:02.780Z,99075.59
2023-01-10T03:23:09.160Z,99083.19
2023-01-10T03:24:19.208Z,99078.59
2023-01-10T03:25:27.586Z,99075.59
2023-01-10T03:26:39.627Z,99072.75
2023-01-10T03:28:03.864Z,99069.75
2023-01-10T03:29:13.797Z,99073.09
2023-01-10T03:30:29.583Z,99075.50
2023-01-10T03:31:56.540Z,99079.19
2023-01-10T03:33:00.208Z,99082.06
2023-01-10T03:34:03.575Z,99074.66
2023-01-10T03:35:09.549Z,99073.19
2023-01-10T03:36:23.392Z,99075.41
2023-01-10T03:37:42.877Z,99079.97
2023-01-10T03:38:54.400Z,99073.63
2023-01-10T03:40:22.877Z,99074.66
2023-01-10T03:41:50.163Z,99067.13
2023-01-10T03:43:29.021Z,99071.59
2023-01-10T03:45:05.098Z,99068.38
2023-01-10T03:46:12.378Z,99072.44
2023-01-10T03:47:32.931Z,99070.34
2023-01-10T03:48:39.066Z,99075.03
2023-01-10T03:49:45.444Z,99072.38
2023-01-10T03:50:49.533Z,99081.66
2023-01-10T03:51:55.124Z,99071.16
2023-01-10T03:52:59.082Z,99078.44
2023-01-10T03:54:02.984Z,99080.13
2023-01-10T03:55:07.386Z,99078.59
2023-01-10T03:56:14.199Z,99077.59
2023-01-10T03:57:21.347Z,99070.47
2023-01-10T03:58:23.970Z,99076.81
2023-01-10T03:59:28.394Z,99083.59
2023-01-10T04:00:32.057Z,99073.94
2023-01-10T04:01:34.718Z,99082.25
2023-01-10T04:02:37.439Z,99082.84
2023-01-10T04:03:40.014Z,99078.03
2023-01-10T04:04:42.569Z,99086.00
2023-01-10T04:05:45.133Z,99080.28
2023-01-10T04:06:47.705Z,99083.38
2023-01-10T04:07:50.448Z,99084.44
2023-01-10T04:08:52.908Z,99094.09
2023-01-10T04:09:55.589Z,99085.88
2023-01-10T04:10:58.124Z,99093.06
2023-01-10T04:12:00.708Z,99090.72
2023-01-10T04:13:03.362Z,99095.97
2023-01-10T04:14:06.109Z,99095.88
2023-01-10T04:15:09.234Z,99099.56
2023-01-10T04:16:12.134Z,99097.63
2023-01-10T04:17:17.050Z,99095.41
2023-01-10T04:18:19.822Z,99103.91
2023-01-10T04:19:22.364Z,99099.22
2023-01-10T04:20:28.367Z,99108.75
2023-01-10T04:21:31.600Z,99102.53
2023-01-10T04:22:37.054Z,99109.06
2023-01-10T04:23:40.389Z,99116.84
2023-01-10T04:24:44.442Z,99120.97
2023-01-10T04:25:47.421Z,99128.06
2023-01-10T04:26:50.045Z,99121.84
2023-01-10T04:27:52.979Z,99120.81
2023-01-10T04:28:57.482Z,99124.88
2023-01-10T04:29:59.902Z,99127.59
2023-01-10T04:31:02.435Z,99118.13
2023-01-10T04:32:08.099Z,99119.84
2023-01-10T04:33:12.738Z,99115.66
2023-01-10T04:34:15.201Z,99123.94
2023-01-10T04:35:17.684Z,99125.66
2023-01-10T04:36:20.395Z,99124.47
2023-01-10T04:37:23.130Z,99128.41
2023-01-10T04:38:25.679Z,99136.72
2023-01-10T04:39:28.376Z,99146.75
2023-01-10T04:40:30.956Z,99141.97
2023-01-10T04:41:33.530Z,99141.19
2023-01-10T04:42:36.116Z,99142.88
2023-01-10T04:43:38.505Z,99142.19
2023-01-10T04:44:41.047Z,99135.06
2023-01-10T04:45:43.802Z,99133.22
2023-01-10T04:46:46.465Z,99133.66
2023-01-10T04:47:52.379Z,99135.94
2023-01-10T04:48:56.127Z,99134.19
2023-01-10T04:50:01.224Z,99136.28
2023-01-10T04:51:04.436Z,99132.56
2023-01-10T04:52:06.936Z,99134.75
2023-01-10T04:53:12.362Z,99126.66
2023-01-10T04:54:15.387Z,99126.88
2023-01-10T04:55:17.884Z,99124.88
2023-01-10T04:56:22.128Z,99133.41
2023-01-10T04:57:24.805Z,99135.84
2023-01-10T04:58:29.133Z,99128.41
2023-01-10T04:59:34.564Z,99121.63
2023-01-10T05:00:37.220Z,99132.22
2023-01-10T05:01:39.863Z,99125.69
2023-01-10T05:02:45.201Z,99136.41
2023-01-10T05:03:49.306Z,99137.47
2023-01-10T05:04:51.846Z,99136.28
2023-01-10T05:05:54.206Z,99136.28
2023-01-10T05:06:56.814Z,99134.41
2023-01-10T05:08:01.993Z,99129.75
2023-01-10T05:09:04.500Z,99127.47
2023-01-10T05:10:08.814Z,99129.81
2023-01-10T05:11:12.116Z,99137.63
2023-01-10T05:12:14.690Z,99137.13
2023-01-10T05:13:17.138Z,99141.72
2023-01-10T05:14:19.662Z,99137.53
2023-01-10T05:15:23.390Z,99145.81
2023-01-10T05:16:29.565Z,99148.75
2023-01-10T05:17:32.121Z,99141.34
2023-01-10T05:18:35.532Z,99140.78
2023-01-10T05:19:37.970Z,99139.13
2023-01-10T05:20:40.734Z,99145.50
2023-01-10T05:21:43.202Z,99144.28
2023-01-10T05:22:46.136Z,99148.75
2023-01-10T05:23:48.569Z,99136.50
2023-01-10T05:24:51.505Z,99150.94
2023-01-10T05:25:54.707Z,99146.34
2023-01-10T05:26:57.106Z,99153.34
2023-01-10T05:27:59.667Z,99153.09
2023-01-10T05:29:02.443Z,99150.38
2023-01-10T05:30:06.512Z,99148.44
2023-01-10T05:31:10.985Z,99162.00
2023-01-10T05:32:13.504Z,99151.28
2023-01-10T05:33:16.051Z,99161.22
2023-01-10T05:34:18.455Z,99151.91
2023-01-10T05:35:20.982Z,99164.69
2023-01-10T05:36:23.537Z,99155.31
2023-01-10T05:37:26.046Z,99160.97
2023-01-10T05:38:33.929Z,99164.16
2023-01-10T05:39:36.572Z,99166.13
2023-01-10T05:40:39.101Z,99171.78
2023-01-10T05:41:41.575Z,99170.50
2023-01-10T05:42:43.988Z,99168.72
2023-01-10T05:43:46.382Z,99175.59
2023-01-10T05:44:48.956Z,99164.69
2023-01-10T05:45:52.109Z,99167.00
2023-01-10T05:46:54.692Z,99166.66
2023-01-10T05:47:57.351Z,99168.41
2023-01-10T05:49:00.156Z,99168.84
2023-01-10T05:50:02.741Z,99170.25
2023-01-10T05:51:05.439Z,99177.59
2023-01-10T05:52:07.877Z,99174.66
2023-01-10T05:53:10.464Z,99182.50
2023-01-10T05:54:13.011Z,99181.84
2023-01-10T05:55:18.263Z,99178.22
2023-01-10T05:56:21.085Z,99178.91
2023-01-10T05:57:24.878Z,99189.81
2023-01-10T05:58:27.732Z,99193.53
2023-01-10T05:59:30.208Z,99196.47
2023-01-10T06:00:32.692Z,99201.97
2023-01-10T06:01:35.070Z,99197.91
2023-01-10T06:02:37.584Z,99203.69
2023-01-10T06:03:40.776Z,99192.13
2023-01-10T06:04:43.891Z,99199.56
2023-01-10T06:05:48.666Z,99202.75
2023-01-10T06:06:51.485Z,99199.34
2023-01-10T06:07:53.951Z,99197.56
2023-01-10T06:08:59.225Z,99212.88
2023-01-10T06:10:01.760Z,99215.84
2023-01-10T06:11:05.606Z,99213.44
2023-01-10T06:12:08.037Z,99219.13
2023-01-10T06:13:12.320Z,99218.47
2023-01-10T06:14:19.442Z,99222.28
2023-01-10T06:15:22.143Z,99218.13
2023-01-10T06:16:25.412Z,99221.91
2023-01-10T06:17:27.999Z,99212.78
2023-01-10T06:18:30.653Z,99221.63
2023-01-10T06:19:33.064Z,99225.31
2023-01-10T06:20:35.785Z,99226.53
2023-01-10T06:21:38.524Z,99229.13
2023-01-10T06:22:42.706Z,99237.56
2023-01-10T06:23:44.921Z,99236.03
2023-01-10T06:24:47.400Z,99235.72
2023-01-10T06:25:50.034Z,99236.81
2023-01-10T06:26:52.600Z,99232.63
2023-01-10T06:27:55.165Z,99234.38
2023-01-10T06:28:59.757Z,99236.25
2023-01-10T06:30:02.250Z,99230.81
2023-01-10T06:31:08.586Z,99225.00
2023-01-10T06:32:11.164Z,99232.41
2023-01-10T06:33:13.803Z,99232.00
2023-01-10T06:34:16.261Z,99232.09
2023-01-10T06:35:18.868Z,99234.22
2023-01-10T06:36:21.566Z,99232.41
2023-01-10T06:37:24.381Z,99227.41
2023-01-10T06:38:26.998Z,99226.84
2023-01-10T06:39:29.704Z,99226.75
2023-01-10T06:40:32.355Z,99231.34
2023-01-10T06:41:34.790Z,99233.28
2023-01-10T06:42:37.512Z,99233.97
2023-01-10T06:43:41.790Z,99237.31
2023-01-10T06:44:44.373Z,99237.00
2023-01-10T06:45:46.902Z,99243.34
2023-01-10T06:46:52.137Z,99241.38
2023-01-10T06:47:54.847Z,99248.13
2023-01-10T06:48:57.220Z,99252.22
2023-01-10T06:50:00.116Z,99239.19
2023-01-10T06:51:03.798Z,99246.41
2023-01-10T06:52:06.512Z,99243.56
2023-01-10T06:53:09.278Z,99248.13
2023-01-10T06:54:11.890Z,99246.84
2023-01-10T06:55:14.719Z,99255.38
2023-01-10T06:56:17.186Z,99251.78
2023-01-10T06:57:20.008Z,99271.72
2023-01-10T06:58:25.525Z,99267.25
2023-01-10T06:59:28.177Z,99263.88
2023-01-10T07:00:31.748Z,99273.06
2023-01-10T07:01:34.395Z,99265.84
2023-01-10T07:02:37.565Z,99260.28
2023-01-10T07:03:41.048Z,99263.22
2023-01-10T07:04:43.543Z,99269.69
2023-01-10T07:05:46.119Z,99261.59
2023-01-10T07:06:48.536Z,99266.50
2023-01-10T07:07:51.705Z,99257.84
2023-01-10T07:08:55.251Z,99260.84
2023-01-10T07:09:59.910Z,99259.06
2023-01-10T07:11:02.492Z,99263.22
2023-01-10T07:12:05.133Z,99265.53
2023-01-10T07:13:07.663Z,99256.66
2023-01-10T07:14:10.384Z,99261.81
2023-01-10T07:15:12.924Z,99258.88
2023-01-10T07:16:16.502Z,99256.13
2023-01-10T07:17:19.084Z,99259.31
2023-01-10T07:18:21.481Z,99254.16
2023-01-10T07:19:24.100Z,99257.56
2023-01-10T07:20:27.737Z,99265.63
2023-01-10T07:21:30.325Z,99268.38
2023-01-10T07:22:33.267Z,99271.72
2023-01-10T07:23:36.125Z,99283.47
2023-01-10T07:24:38.512Z,99293.38
2023-01-10T07:25:41.307Z,99284.53
2023-01-10T07:26:43.755Z,99292.31
2023-01-10T07:27:46.247Z,99286.09
2023-01-10T07:28:55.094Z,99285.72
2023-01-10T07:29:57.674Z,99290.75
2023-01-10T07:31:01.170Z,99288.81
2023-01-10T07:32:04.164Z,99291.97
2023-01-10T07:33:06.705Z,99287.59
2023-01-10T07:34:09.346Z,99292.84
2023-01-10T07:35:11.890Z,99289.56
2023-01-10T07:36:14.662Z,99291.13
2023-01-10T07:37:17.400Z,99297.88
2023-01-10T07:38:20.239Z,99301.16
2023-01-10T07:39:22.728Z,99298.53
2023-01-10T07:40:25.936Z,99309.34
2023-01-10T07:41:28.761Z,99312.88
2023-01-10T07:42:33.928Z,99323.78
2023-01-10T07:43:36.937Z,99317.09
2023-01-10T07:44:39.336Z,99320.91
2023-01-10T07:45:44.151Z,99324.97
2023-01-10T07:46:46.571Z,99322.44
2023-01-10T07:47:49.094Z,99329.66
2023-01-10T07:48:51.649Z,99323.53
2023-01-10T07:49:54.584Z,99324.88
2023-01-10T07:50:58.864Z,99332.41
2023-01-10T07:52:01.699Z,99333.91
2023-01-10T07:53:06.542Z,99329.56
2023-01-10T07:54:09.169Z,99323.53
2023-01-10T07:55:11.625Z,99324.63
2023-01-10T07:56:14.122Z,99320.59
2023-01-10T07:57:17.678Z,99329.34
2023-01-10T07:58:20.213Z,99334.91
2023-01-10T07:59:22.827Z,99331.41
2023-01-10T08:00:25.553Z,99332.41
2023-01-10T08:01:30.532Z,99332.94
2023-01-10T08:02:33.453Z,99333.81
2023-01-10T08:03:36.935Z,99336.00
2023-01-10T08:04:39.439Z,99333.72
2023-01-10T08:05:41.894Z,99341.69
2023-01-10T08:06:44.543Z,99343.41
2023-01-10T08:07:47.538Z,99351.28
2023-01-10T08:08:49.902Z,99350.84
2023-01-10T08:09:52.410Z,99350.00
2023-01-10T08:10:55.265Z,99353.03
2023-01-10T08:11:58.534Z,99357.41
2023-01-10T08:13:13.059Z,99353.69
2023-01-10T08:14:20.327Z,99352.25
2023-01-10T08:15:22.905Z,99355.56
2023-01-10T08:16:25.472Z,99352.69
2023-01-10T08:17:28.078Z,99354.25
2023-01-10T08:18:30.641Z,99360.03
2023-01-10T08:19:33.278Z,99353.28
2023-01-10T08:20:36.063Z,99355.56
2023-01-10T08:21:38.508Z,99358.63
2023-01-10T08:22:40.996Z,99360.13
2023-01-10T08:23:43.481Z,99365.28
2023-01-10T08:24:45.931Z,99367.78
2023-01-10T08:25:48.716Z,99376.63
2023-01-10T08:26:54.191Z,99371.63
2023-01-10T08:27:56.807Z,99370.00
2023-01-10T08:28:59.703Z,99373.47
2023-01-10T08:30:02.400Z,99363.66
2023-01-10T08:31:08.558Z,99363.75
2023-01-10T08:32:12.226Z,99372.72
2023-01-10T08:33:25.593Z,99368.75
2023-01-10T08:34:28.163Z,99379.25
2023-01-10T08:35:30.909Z,99374.56
2023-01-10T08:36:33.683Z,99379.38
2023-01-10T08:37:36.323Z,99385.84
2023-01-10T08:38:39.711Z,99380.91
2023-01-10T08:39:42.248Z,99386.47
2023-01-10T08:40:44.639Z,99391.19
2023-01-10T08:41:47.128Z,99389.09
2023-01-10T08:42:57.868Z,99392.34
2023-01-10T08:44:00.984Z,99404.50
2023-01-10T08:45:04.139Z,99402.88
2023-01-10T08:46:07.276Z,99407.72
2023-01-10T08:47:10.373Z,99414.03
2023-01-10T08:48:13.349Z,99398.63
2023-01-10T08:49:16.070Z,99411.09
2023-01-10T08:50:18.910Z,99421.78
2023-01-10T08:51:24.045Z,99418.59
2023-01-10T08:52:26.731Z,99420.59
2023-01-10T08:53:32.100Z,99413.16
2023-01-10T08:54:34.617Z,99426.47
2023-01-10T08:55:38.074Z,99428.78
2023-01-10T08:56:40.601Z,99427.94
2023-01-10T08:57:43.217Z,99434.69
2023-01-10T08:58:45.745Z,99439.84
2023-01-10T08:59:48.449Z,99453.06
2023-01-10T09:00:51.596Z,99450.34
2023-01-10T09:01:58.704Z,99463.56
2023-01-10T09:03:03.421Z,99461.78
2023-01-10T09:04:05.789Z,99469.91
2023-01-10T09:05:22.015Z,99463.88
2023-01-10T09:06:28.761Z,99466.97
2023-01-10T09:07:31.358Z,99467.28
2023-01-10T09:08:34.053Z,99462.34
2023-01-10T09:09:37.359Z,99468.91
2023-01-10T09:10:40.195Z,99458.19
2023-01-10T09:11:42.709Z,99457.22
2023-01-10T09:12:56.947Z,99451.75
2023-01-10T09:13:59.435Z,99455.91
2023-01-10T09:15:02.063Z,99461.72
2023-01-10T09:16:05.160Z,99456.00
2023-01-10T09:17:07.859Z,99451.63
2023-01-10T09:18:12.617Z,99455.69
2023-01-10T09:19:15.241Z,99448.59
2023-01-10T09:20:17.862Z,99446.19
2023-01-10T09:21:20.551Z,99453.09
2023-01-10T09:22:23.960Z,99452.31
2023-01-10T09:23:26.607Z,99455.47
2023-01-10T09:24:29.141Z,99461.91
2023-01-10T09:25:31.843Z,99463.00
2023-01-10T09:26:34.402Z,99459.28
2023-01-10T09:27:37.324Z,99468.91
2023-01-10T09:28:39.817Z,99476.38
2023-01-10T09:29:42.269Z,99480.41
2023-01-10T09:30:45.797Z,99475.81
2023-01-10T09:31:48.626Z,99484.13
2023-01-10T09:32:55.563Z,99487.53
2023-01-10T09:33:58.171Z,99486.31
2023-01-10T09:35:00.946Z,99479.50
2023-01-10T09:36:04.043Z,99490.25
2023-01-10T09:37:06.616Z,99498.88
2023-01-10T09:38:13.047Z,99499.44
2023-01-10T09:39:15.562Z,99493.53
2023-01-10T09:40:22.446Z,99495.91
2023-01-10T09:42:03.115Z,99501.06
2023-01-10T09:43:18.980Z,99504.00
2023-01-10T09:44:44.324Z,99502.72
2023-01-10T09:46:02.851Z,99507.97
2023-01-10T09:47:21.182Z,99508.72
2023-01-10T09:48:37.492Z,99504.13
2023-01-10T09:49:45.849Z,99505.44
2023-01-10T09:50:52.538Z,99511.56
2023-01-10T09:51:59.101Z,99509.91
2023-01-10T09:53:13.986Z,99508.94
2023-01-10T09:54:23.758Z,99506.84
2023-01-10T09:55:32.276Z,99512.19
2023-01-10T09:56:35.912Z,99508.28
2023-01-10T09:57:38.494Z,99507.84
2023-01-10T09:58:42.371Z,99512.88
2023-01-10T09:59:46.020Z,99520.22
2023-01-10T10:00:56.780Z,99518.38
2023-01-10T10:02:14.509Z,99517.38
2023-01-10T10:03:30.101Z,99514.22
2023-01-10T10:04:39.780Z,99518.78
2023-01-10T10:05:42.360Z,99525.13
2023-01-10T10:06:51.981Z,99522.06
2023-01-10T10:08:05.613Z,99514.06
2023-01-10T10:09:14.141Z,99524.72
2023-01-10T10:11:13.865Z,99515.75
2023-01-10T10:13:01.609Z,99519.47
2023-01-10T10:14:07.471Z,99518.13
2023-01-10T10:15:27.705Z,99517.47
2023-01-10T10:17:10.878Z,99519.78
2023-01-10T10:18:34.373Z,99514.66
2023-01-10T10:19:58.606Z,99520.09
2023-01-10T10:21:08.274Z,99516.53
2023-01-10T10:22:37.906Z,99520.41
2023-01-10T10:23:55.812Z,99527.41
2023-01-10T10:25:59.866Z,99525.78
2023-01-10T10:27:31.396Z,99531.66
2023-01-10T10:29:06.360Z,99535.06
2023-01-10T10:30:50.286Z,99537.81
2023-01-10T10:32:26.027Z,99539.09
2023-01-10T10:33:34.041Z,99547.59
2023-01-10T10:34:52.830Z,99548.59
2023-01-10T10:36:14.618Z,99544.66
2023-01-10T10:37:46.090Z,99551.56
2023-01-10T10:38:50.600Z,99547.19
2023-01-10T10:40:00.615Z,99548.06
2023-01-10T10:41:04.498Z,99550.44
2023-01-10T10:43:36.431Z,99552.75
2023-01-10T10:46:42.386Z,99562.94
2023-01-10T10:47:51.270Z,99561.56
2023-01-10T10:49:27.016Z,99565.75
2023-01-10T10:50:32.741Z,99563.13
2023-01-10T10:51:55.946Z,99565.94
2023-01-10T10:53:02.492Z,99567.91
2023-01-10T10:54:06.677Z,99569.91
2023-01-10T10:55:26.479Z,99579.94
2023-01-10T10:56:31.837Z,99582.91
2023-01-10T10:57:41.660Z,99579.19
2023-01-10T10:58:56.341Z,99579.50
2023-01-10T11:00:02.126Z,99571.22
2023-01-10T11:01:06.233Z,99567.91
2023-01-10T11:02:22.629Z,99567.50
2023-01-10T11:03:36.215Z,99568.28
2023-01-10T11:04:38.837Z,99567.50
2023-01-10T11:05:45.681Z,99569.50
2023-01-10T11:06:50.932Z,99562.41
2023-01-10T11:07:59.730Z,99565.13
2023-01-10T11:09:05.073Z,99566.00
2023-01-10T11:10:35.094Z,99567.09
2023-01-10T11:11:45.249Z,99562.50
2023-01-10T11:12:51.318Z,99567.09
2023-01-10T11:13:58.055Z,99566.44
2023-01-10T11:15:01.860Z,99570.16
2023-01-10T11:16:06.628Z,99574.31
2023-01-10T11:17:22.227Z,99577.41
2023-01-10T11:18:27.657Z,99581.34
2023-01-10T11:19:30.490Z,99586.59
2023-01-10T11:20:34.601Z,99590.75
2023-01-10T11:21:40.969Z,99578.81
2023-01-10T11:22:54.034Z,99571.38
2023-01-10T11:23:57.461Z,99571.25
2023-01-10T11:25:01.919Z,99581.91
2023-01-10T11:26:07.257Z,99584.63
2023-01-10T11:27:22.018Z,99569.66
2023-01-10T11:28:32.639Z,99569.75
2023-01-10T11:29:40.275Z,99579.38
2023-01-10T11:30:48.595Z,99577.41
2023-01-10T11:31:54.244Z,99583.53
2023-01-10T11:33:08.665Z,99589.63
2023-01-10T11:34:23.436Z,99579.59
2023-01-10T11:35:29.900Z,99594.78
2023-01-10T11:36:53.111Z,99592.47
2023-01-10T11:38:00.104Z,99591.72
2023-01-10T11:39:04.628Z,99586.81
2023-01-10T11:40:23.941Z,99598.41
2023-01-10T11:41:31.738Z,99597.41
2023-01-10T11:42:34.387Z,99597.19
2023-01-10T11:43:40.154Z,99602.09
2023-01-10T11:44:43.683Z,99606.13
2023-01-10T11:45:53.475Z,99606.91
2023-01-10T11:47:15.877Z,99604.53
2023-01-10T11:48:42.340Z,99606.69
2023-01-10T11:49:45.724Z,99604.72
2023-01-10T11:50:54.364Z,99615.22
2023-01-10T11:52:19.565Z,99610.31
2023-01-10T11:53:42.981Z,99615.34
2023-01-10T11:54:45.732Z,99602.53
2023-01-10T11:55:51.351Z,99605.38
2023-01-10T11:57:03.191Z,99615.03
2023-01-10T11:58:15.798Z,99614.25
2023-01-10T11:59:19.214Z,99622.34
2023-01-10T12:00:22.371Z,99629.47
2023-01-10T12:01:28.667Z,99631.31
2023-01-10T12:02:44.279Z,99625.31
2023-01-10T12:03:46.940Z,99638.00
2023-01-10T12:04:55.427Z,99635.56
2023-01-10T12:06:18.091Z,99638.00
2023-01-10T12:07:23.766Z,99638.88
2023-01-10T12:08:33.410Z,99632.75
2023-01-10T12:09:44.583Z,99638.66
2023-01-10T12:10:58.408Z,99639.41
2023-01-10T12:12:30.408Z,99637.25
2023-01-10T12:13:50.453Z,99645.44
2023-01-10T12:14:55.313Z,99647.97
2023-01-10T12:16:27.086Z,99657.56
2023-01-10T12:17:35.500Z,99660.28
2023-01-10T12:18:37.862Z,99662.06
2023-01-10T12:19:40.656Z,99666.44
2023-01-10T12:20:53.144Z,99660.88
2023-01-10T12:22:01.053Z,99666.03
2023-01-10T12:23:11.605Z,99667.88
2023-01-10T12:24:22.952Z,99675.63
2023-01-10T12:25:33.767Z,99671.69
2023-01-10T12:26:36.788Z,99667.44
2023-01-10T12:27:39.289Z,99674.09
2023-01-10T12:28:52.554Z,99681.50
2023-01-10T12:30:05.713Z,99680.44
2023-01-10T12:31:15.807Z,99688.31
2023-01-10T12:32:23.593Z,99685.25
2023-01-10T12:33:30.479Z,99696.06
2023-01-10T12:34:42.731Z,99699.56
2023-01-10T12:35:59.649Z,99695.00
2023-01-10T12:37:24.197Z,99696.25
2023-01-10T12:38:59.952Z,99700.56
2023-01-10T12:40:14.881Z,99688.53
2023-01-10T12:41:47.176Z,99703.03
2023-01-10T12:43:32.358Z,99704.72
2023-01-10T12:44:40.300Z,99705.34
2023-01-10T12:46:28.114Z,99705.22
2023-01-10T12:47:50.474Z,99700.75
2023-01-10T12:48:58.676Z,99700.09
2023-01-10T12:50:22.803Z,99711.09
2023-01-10T12:51:32.150Z,99703.81
2023-01-10T12:52:46.442Z,99701.81
2023-01-10T12:53:54.473Z,99708.78
2023-01-10T12:54:57.839Z,99705.50
2023-01-10T12:56:06.116Z,99702.50
2023-01-10T12:57:38.552Z,99697.34
2023-01-10T12:58:45.157Z,99695.63
2023-01-10T12:59:49.614Z,99696.56
2023-01-10T13:00:57.735Z,99701.50
2023-01-10T13:02:02.474Z,99706.63
2023-01-10T13:03:15.060Z,99706.34
2023-01-10T13:04:22.866Z,99707.38
2023-01-10T13:05:28.293Z,99712.63
2023-01-10T13:06:37.774Z,99709.13
2023-01-10T13:07:40.865Z,99711.41
2023-01-10T13:08:43.981Z,99710.34
2023-01-10T13:09:48.690Z,99717.31
2023-01-10T13:10:57.749Z,99715.00
2023-01-10T13:12:20.693Z,99721.47
2023-01-10T13:13:45.377Z,99719.16
2023-01-10T13:14:54.559Z,99711.66
2023-01-10T13:16:16.748Z,99712.28
2023-01-10T13:17:34.253Z,99719.28
2023-01-10T13:18:37.163Z,99716.22
2023-01-10T13:19:39.633Z,99721.78
2023-01-10T13:20:46.846Z,99722.75
2023-01-10T13:21:50.295Z,99714.41
2023-01-10T13:22:59.398Z,99715.50
2023-01-10T13:24:22.575Z,99723.38